Arxan, China
Current Conditions -  °F | °C
As of 8:00 PM on Sunday 23 Nov 2014 (Local Time) from ZYHB Reporting Station
Clear Clear  
Wind Chill: 15°   Ceiling: Unl
Heat Index: 23°   Visibility: 4mi
Dew Point: 10°   Wind: 7mph
Humidity: 59%   Direction: 230°SW
Pressure: 30.09"   Gusts: NA
Location:  47.17°N, 119.95°E
Report Text: ZYHB 231200Z 23003MPS 6000 NSC M05/M12 Q1019 NOSIG
Loading
Personal Weather Stations






























Interactive Weather Map New forecast layout! Learn more

10-Day Weather Forecast

Advertisements
Track Severe Weather on mobile